Time;durP1;ratioP1;P1;durP2;ratioP2;P2;SDS_P1;SDS_P2;PMS_P1;PMS_P2;Temp;Humidity;BMP_temperature;BMP_pressure;BME280_temperature;BME280_humidity;BME280_pressure;Samples;Min_cycle;Max_cycle;Signal;HPM_P1;HPM_P2
2024/03/23 00:00:44;;;;;;;1.90;1.80;;;9.40;99.90;;;;;;5032503;28;20655;-76
2024/03/23 00:03:13;;;;;;;3.80;1.70;;;9.50;99.90;;;;;;5025559;28;20230;-76
2024/03/23 00:05:43;;;;;;;3.00;2.10;;;9.50;99.90;;;;;;5032103;28;20201;-75
2024/03/23 00:08:11;;;;;;;1.88;1.73;;;9.70;99.90;;;;;;5032556;28;20205;-75
2024/03/23 00:10:41;;;;;;;2.03;1.83;;;9.70;99.90;;;;;;5032362;28;20265;-76
2024/03/23 00:13:09;;;;;;;2.05;1.85;;;9.80;99.90;;;;;;5032143;28;20308;-76
2024/03/23 00:15:38;;;;;;;2.58;1.90;;;9.90;99.90;;;;;;5032434;28;20209;-76
2024/03/23 00:18:07;;;;;;;2.22;2.00;;;10.10;99.90;;;;;;5032142;28;20205;-76
2024/03/23 00:20:36;;;;;;;3.45;1.83;;;10.20;99.90;;;;;;5032213;28;20245;-76
2024/03/23 00:23:04;;;;;;;3.10;1.92;;;10.20;99.90;;;;;;5031687;28;20222;-76
2024/03/23 00:25:34;;;;;;;2.30;2.10;;;10.30;99.90;;;;;;5031867;28;20212;-76
2024/03/23 00:28:02;;;;;;;4.75;2.28;;;10.30;99.90;;;;;;5031752;28;20206;-76
2024/03/23 00:30:32;;;;;;;3.20;2.25;;;10.30;99.90;;;;;;5031716;28;20602;-76
2024/03/23 00:33:00;;;;;;;2.00;1.70;;;10.40;99.90;;;;;;5031408;28;20229;-76
2024/03/23 00:35:30;;;;;;;3.38;2.35;;;10.50;99.90;;;;;;5032100;28;20210;-76
2024/03/23 00:37:58;;;;;;;2.60;1.73;;;10.50;99.90;;;;;;5031832;28;20225;-76
2024/03/23 00:40:27;;;;;;;2.53;1.73;;;10.50;99.90;;;;;;5031934;28;20233;-76
2024/03/23 00:42:56;;;;;;;2.25;2.00;;;10.50;99.90;;;;;;5030738;28;20232;-76
2024/03/23 00:45:25;;;;;;;1.88;1.75;;;10.40;99.90;;;;;;5032054;28;20667;-75
2024/03/23 00:47:53;;;;;;;2.42;1.95;;;10.50;99.90;;;;;;5031416;28;20621;-76
2024/03/23 00:50:23;;;;;;;2.15;1.55;;;10.40;99.90;;;;;;5031632;28;20212;-76
2024/03/23 00:52:50;;;;;;;2.33;2.08;;;10.50;99.90;;;;;;5030879;28;20225;-76
2024/03/23 00:55:16;;;;;;;3.13;2.15;;;10.60;99.90;;;;;;5031861;28;20217;-76
2024/03/23 00:57:42;;;;;;;2.30;1.73;;;10.60;99.90;;;;;;5030863;28;20587;-76
2024/03/23 01:00:10;;;;;;;2.13;1.90;;;10.60;99.90;;;;;;5031573;28;20212;-75
2024/03/23 01:02:36;;;;;;;3.00;1.70;;;10.70;99.90;;;;;;5030978;28;20214;-75
2024/03/23 01:05:03;;;;;;;3.05;2.15;;;10.70;99.90;;;;;;5031471;28;20252;-76
2024/03/23 01:07:29;;;;;;;3.75;1.98;;;10.80;99.90;;;;;;5031219;28;20287;-76
2024/03/23 01:09:57;;;;;;;1.83;1.70;;;10.80;99.90;;;;;;5031248;28;20225;-76
2024/03/23 01:12:23;;;;;;;2.75;1.90;;;10.80;99.90;;;;;;5031355;28;20237;-76
2024/03/23 01:14:49;;;;;;;3.00;2.07;;;10.80;99.90;;;;;;5031657;28;20202;-76
2024/03/23 01:17:15;;;;;;;2.10;1.90;;;10.80;99.90;;;;;;5031625;28;20209;-76
2024/03/23 01:19:42;;;;;;;2.27;1.70;;;10.80;99.90;;;;;;5031237;28;20221;-76
2024/03/23 01:22:09;;;;;;;4.15;1.92;;;10.80;99.90;;;;;;5031335;28;20316;-76
2024/03/23 01:24:36;;;;;;;2.42;1.50;;;10.70;99.90;;;;;;5031231;28;20213;-76
2024/03/23 01:27:04;;;;;;;1.90;1.80;;;10.70;99.90;;;;;;5031456;28;20210;-75
2024/03/23 01:29:30;;;;;;;2.20;2.00;;;10.80;99.90;;;;;;5031317;28;20209;-76
2024/03/23 01:31:56;;;;;;;2.40;2.20;;;10.70;99.90;;;;;;5030498;28;20245;-76
2024/03/23 01:34:24;;;;;;;2.90;2.07;;;10.70;99.90;;;;;;5031359;28;20205;-75
2024/03/23 01:36:50;;;;;;;2.00;1.80;;;10.70;99.90;;;;;;5031029;28;20206;-75
2024/03/23 01:39:17;;;;;;;2.60;2.03;;;10.70;99.90;;;;;;5031178;28;20479;-76
2024/03/23 01:41:43;;;;;;;1.50;1.40;;;10.60;99.90;;;;;;5030451;28;20476;-75
2024/03/23 01:44:11;;;;;;;2.47;1.80;;;10.70;99.90;;;;;;5031360;28;20577;-76
2024/03/23 01:46:37;;;;;;;2.13;1.92;;;10.70;99.90;;;;;;5031131;28;20491;-75
2024/03/23 01:49:05;;;;;;;3.05;1.88;;;10.70;99.90;;;;;;5031096;28;20197;-76
2024/03/23 01:51:32;;;;;;;2.40;1.95;;;10.60;99.90;;;;;;5030922;28;20221;-76
2024/03/23 01:54:00;;;;;;;2.25;1.75;;;10.50;99.90;;;;;;5030412;28;20213;-76
2024/03/23 01:56:26;;;;;;;2.95;2.13;;;10.50;99.90;;;;;;5031181;28;20209;-76
2024/03/23 01:58:53;;;;;;;2.70;2.27;;;10.40;99.90;;;;;;5030776;28;20267;-76
2024/03/23 02:01:20;;;;;;;3.60;1.75;;;10.30;99.90;;;;;;5030834;28;20842;-76
2024/03/23 02:03:47;;;;;;;2.88;2.25;;;10.30;99.90;;;;;;5030696;28;20206;-76
2024/03/23 02:06:13;;;;;;;1.77;1.67;;;10.30;99.90;;;;;;5031227;28;20209;-76
2024/03/23 02:08:40;;;;;;;2.27;2.00;;;10.30;99.90;;;;;;5030872;28;20228;-76
2024/03/23 02:11:06;;;;;;;1.98;1.77;;;10.30;99.90;;;;;;5030915;28;20495;-76
2024/03/23 02:13:33;;;;;;;2.47;2.27;;;10.30;99.90;;;;;;5030794;28;20226;-76
2024/03/23 02:15:59;;;;;;;1.85;1.63;;;10.30;99.90;;;;;;5030916;28;20217;-76
2024/03/23 02:18:27;;;;;;;1.87;1.67;;;10.30;99.90;;;;;;5031135;28;20197;-76
2024/03/23 02:20:52;;;;;;;1.95;1.65;;;10.30;99.90;;;;;;5030379;28;20210;-76
2024/03/23 02:23:21;;;;;;;3.13;2.33;;;10.30;99.90;;;;;;5030661;28;20225;-75
2024/03/23 02:25:47;;;;;;;2.47;1.85;;;10.30;99.90;;;;;;5030676;28;20205;-75
2024/03/23 02:28:13;;;;;;;1.77;1.67;;;10.30;99.90;;;;;;5030922;28;20255;-75
2024/03/23 02:30:39;;;;;;;1.80;1.40;;;10.30;99.90;;;;;;5030454;28;20210;-75
2024/03/23 02:33:06;;;;;;;2.07;1.83;;;10.40;99.90;;;;;;5030326;28;20240;-75
2024/03/23 02:35:33;;;;;;;3.05;1.60;;;10.40;99.90;;;;;;5030901;28;20221;-75
2024/03/23 02:37:59;;;;;;;4.10;2.08;;;10.40;99.90;;;;;;5030484;28;20578;-75
2024/03/23 02:40:28;;;;;;;2.20;1.88;;;10.50;99.90;;;;;;5030581;28;20212;-75
2024/03/23 02:42:55;;;;;;;2.15;1.90;;;10.60;99.90;;;;;;5030216;28;20260;-76
2024/03/23 02:45:21;;;;;;;2.15;1.95;;;10.60;99.90;;;;;;5030802;28;20209;-75
2024/03/23 02:47:51;;;;;;;2.67;1.73;;;10.60;99.90;;;;;;5031400;28;20593;-76
2024/03/23 02:50:17;;;;;;;2.75;1.80;;;10.60;99.90;;;;;;5034205;28;20237;-75
2024/03/23 02:52:44;;;;;;;2.03;1.80;;;10.70;99.90;;;;;;5033704;28;20281;-75
2024/03/23 02:55:10;;;;;;;2.10;1.90;;;10.70;99.90;;;;;;5034100;28;20221;-75
2024/03/23 02:57:38;;;;;;;3.40;1.80;;;10.70;99.90;;;;;;5034168;28;20202;-75
2024/03/23 03:00:06;;;;;;;2.75;1.90;;;10.70;99.90;;;;;;5033790;28;20901;-75
2024/03/23 03:02:33;;;;;;;4.32;2.60;;;10.70;99.90;;;;;;5033867;28;20234;-75
2024/03/23 03:04:58;;;;;;;1.80;1.65;;;10.70;99.90;;;;;;5033767;28;20202;-75
2024/03/23 03:07:25;;;;;;;3.27;1.93;;;10.70;99.90;;;;;;5036707;28;20207;-75
2024/03/23 03:09:51;;;;;;;2.22;1.50;;;10.70;99.90;;;;;;5035428;28;20198;-76
2024/03/23 03:12:18;;;;;;;3.20;1.83;;;10.70;99.90;;;;;;5036676;28;20244;-76
2024/03/23 03:14:45;;;;;;;2.35;1.80;;;10.60;99.90;;;;;;5036713;28;20214;-75
2024/03/23 03:17:11;;;;;;;2.47;2.25;;;10.60;99.90;;;;;;5036701;28;20583;-75
2024/03/23 03:19:37;;;;;;;2.70;2.20;;;10.60;99.90;;;;;;5034374;28;20214;-75
2024/03/23 03:22:04;;;;;;;1.93;1.80;;;10.50;99.90;;;;;;5032743;28;20237;-75
2024/03/23 03:24:30;;;;;;;2.40;1.80;;;10.50;99.90;;;;;;5033846;28;20283;-75
2024/03/23 03:26:57;;;;;;;1.70;1.60;;;10.50;99.90;;;;;;5033420;28;20206;-75
2024/03/23 03:29:23;;;;;;;3.72;1.77;;;10.50;99.90;;;;;;5033513;28;20210;-75
2024/03/23 03:31:51;;;;;;;2.20;2.00;;;10.40;99.90;;;;;;5032633;28;20260;-75
2024/03/23 03:34:16;;;;;;;3.90;1.95;;;10.40;99.90;;;;;;5033532;28;20213;-75
2024/03/23 03:36:43;;;;;;;2.00;1.80;;;10.30;99.90;;;;;;5033504;28;20210;-75
2024/03/23 03:39:09;;;;;;;3.53;1.90;;;10.30;99.90;;;;;;5033148;28;20206;-76
2024/03/23 03:41:36;;;;;;;3.55;2.15;;;10.30;99.90;;;;;;5033084;28;20202;-75
2024/03/23 03:44:02;;;;;;;2.00;1.67;;;10.30;99.90;;;;;;5032842;28;20214;-75
2024/03/23 03:46:29;;;;;;;2.33;2.13;;;10.30;99.90;;;;;;5033477;28;20209;-76
2024/03/23 03:48:56;;;;;;;2.38;2.00;;;10.30;99.90;;;;;;5032946;28;20279;-75
2024/03/23 03:51:22;;;;;;;2.30;1.83;;;10.20;99.90;;;;;;5032848;28;20634;-75
2024/03/23 03:53:48;;;;;;;3.10;2.00;;;10.20;99.90;;;;;;5032566;28;20628;-75
2024/03/23 03:56:15;;;;;;;2.00;1.73;;;10.10;99.90;;;;;;5032995;28;20213;-75
2024/03/23 03:58:41;;;;;;;2.75;1.65;;;10.10;99.90;;;;;;5032484;28;20217;-75
2024/03/23 04:01:07;;;;;;;2.20;2.00;;;10.10;99.90;;;;;;5032051;28;20202;-75
2024/03/23 04:03:34;;;;;;;2.10;1.90;;;10.00;99.90;;;;;;5032668;28;20228;-75
2024/03/23 04:06:03;;;;;;;2.30;2.10;;;9.90;99.90;;;;;;5032616;28;20202;-75
2024/03/23 04:08:28;;;;;;;3.25;2.35;;;9.90;99.90;;;;;;5032932;28;20568;-75
2024/03/23 04:10:55;;;;;;;4.00;2.30;;;9.80;99.90;;;;;;5032381;28;20198;-75
2024/03/23 04:13:21;;;;;;;2.20;2.00;;;9.80;99.90;;;;;;5032388;28;20233;-75
2024/03/23 04:15:48;;;;;;;2.80;1.70;;;9.80;99.90;;;;;;5032621;28;20626;-75
2024/03/23 04:18:14;;;;;;;1.98;1.77;;;9.80;99.90;;;;;;5032473;28;20217;-75
2024/03/23 04:20:40;;;;;;;2.17;1.98;;;9.80;99.90;;;;;;5032373;28;20209;-75
2024/03/23 04:23:08;;;;;;;1.70;1.60;;;9.80;99.90;;;;;;5032019;28;20257;-75
2024/03/23 04:25:34;;;;;;;3.30;1.83;;;9.80;99.90;;;;;;5032629;28;20212;-75
2024/03/23 04:28:00;;;;;;;3.50;2.38;;;9.80;99.90;;;;;;5032066;28;20206;-75
2024/03/23 04:30:29;;;;;;;2.17;1.90;;;9.70;99.90;;;;;;5032096;28;20208;-75
2024/03/23 04:32:54;;;;;;;2.58;2.17;;;9.70;99.90;;;;;;5031817;28;20230;-76
2024/03/23 04:35:22;;;;;;;2.07;1.87;;;9.70;99.90;;;;;;5032306;28;20206;-76
2024/03/23 04:37:48;;;;;;;2.80;1.80;;;9.80;99.90;;;;;;5032093;28;20216;-75
2024/03/23 04:40:17;;;;;;;2.58;1.52;;;9.70;99.90;;;;;;5031797;28;20210;-75
2024/03/23 04:42:43;;;;;;;2.03;1.83;;;9.70;99.90;;;;;;5031802;28;20217;-75
2024/03/23 04:45:11;;;;;;;3.72;2.10;;;9.80;99.90;;;;;;5032101;28;20659;-75
2024/03/23 04:47:38;;;;;;;2.20;2.00;;;9.90;99.90;;;;;;5032073;28;20238;-75
2024/03/23 04:50:06;;;;;;;2.10;1.90;;;10.00;99.90;;;;;;5031546;28;20202;-75
2024/03/23 04:52:31;;;;;;;2.33;2.10;;;10.10;99.90;;;;;;5031581;28;20233;-75
2024/03/23 04:54:58;;;;;;;2.40;2.20;;;10.20;99.90;;;;;;5031632;28;20227;-75
2024/03/23 04:57:25;;;;;;;3.97;2.55;;;10.30;99.90;;;;;;5032018;28;20206;-75
2024/03/23 04:59:52;;;;;;;2.30;2.10;;;10.30;99.90;;;;;;5031591;28;20210;-75
2024/03/23 05:02:18;;;;;;;4.72;2.80;;;10.30;99.90;;;;;;5031330;28;20229;-75
2024/03/23 05:04:45;;;;;;;3.13;2.90;;;10.30;99.90;;;;;;5031753;28;20198;-75
2024/03/23 05:07:11;;;;;;;4.97;3.47;;;10.30;99.90;;;;;;5031420;28;20209;-75
2024/03/23 05:09:38;;;;;;;6.90;3.53;;;10.20;99.90;;;;;;5031666;28;20255;-76
2024/03/23 05:12:04;;;;;;;5.60;4.20;;;10.20;99.90;;;;;;5030495;28;20746;-76
2024/03/23 05:14:32;;;;;;;6.45;4.65;;;10.10;99.90;;;;;;5031777;28;20198;-75
2024/03/23 05:16:58;;;;;;;5.10;4.03;;;10.10;99.90;;;;;;5031472;28;20232;-76
2024/03/23 05:19:25;;;;;;;6.17;4.93;;;10.00;99.90;;;;;;5031413;28;20206;-76
2024/03/23 05:21:50;;;;;;;6.30;4.63;;;10.00;99.90;;;;;;5030818;28;20225;-76
2024/03/23 05:24:17;;;;;;;8.30;4.93;;;10.00;99.90;;;;;;5031341;28;20581;-76
2024/03/23 05:26:43;;;;;;;6.78;4.63;;;9.90;99.90;;;;;;5031475;28;20202;-76
2024/03/23 05:29:11;;;;;;;5.53;4.70;;;9.90;99.90;;;;;;5031194;28;20202;-75
2024/03/23 05:31:38;;;;;;;8.20;5.25;;;9.80;99.90;;;;;;5031047;28;20210;-76
2024/03/23 05:34:04;;;;;;;6.15;4.40;;;9.80;99.90;;;;;;5031160;28;20205;-76
2024/03/23 05:36:30;;;;;;;5.57;4.40;;;9.70;99.90;;;;;;5031286;28;20694;-76
2024/03/23 05:38:57;;;;;;;5.97;5.00;;;9.70;99.90;;;;;;5031267;28;20284;-76
2024/03/23 05:41:24;;;;;;;6.53;5.60;;;9.70;99.90;;;;;;5031029;28;20209;-76
2024/03/23 05:43:50;;;;;;;5.53;4.40;;;9.70;99.90;;;;;;5031111;28;20198;-76
2024/03/23 05:46:17;;;;;;;6.97;5.25;;;9.70;99.90;;;;;;5031314;28;20221;-76
2024/03/23 05:48:45;;;;;;;7.25;5.13;;;9.60;99.90;;;;;;5030967;28;20213;-76
2024/03/23 05:51:12;;;;;;;8.27;4.78;;;9.60;99.90;;;;;;5030872;28;20231;-76
2024/03/23 05:53:39;;;;;;;7.10;4.60;;;9.60;99.90;;;;;;5030452;28;20236;-76
2024/03/23 05:56:06;;;;;;;5.40;4.35;;;9.50;99.90;;;;;;5030951;28;20591;-75
2024/03/23 05:58:32;;;;;;;5.13;3.97;;;9.50;99.90;;;;;;5031039;28;20205;-76
2024/03/23 06:01:00;;;;;;;3.33;2.95;;;9.40;99.90;;;;;;5030799;28;20216;-76
2024/03/23 06:03:27;;;;;;;3.63;3.22;;;9.40;99.90;;;;;;5030151;28;20214;-76
2024/03/23 06:05:54;;;;;;;3.38;2.28;;;9.30;99.90;;;;;;5030918;28;20208;-76
2024/03/23 06:08:21;;;;;;;3.75;2.97;;;9.20;99.90;;;;;;5030854;28;20949;-76
2024/03/23 06:10:47;;;;;;;2.35;2.15;;;9.20;99.90;;;;;;5030723;28;20555;-76
2024/03/23 06:13:14;;;;;;;3.33;2.40;;;9.10;99.90;;;;;;5030519;28;20236;-76
2024/03/23 06:15:40;;;;;;;3.17;2.40;;;9.10;99.90;;;;;;5031146;28;20205;-76
2024/03/23 06:18:07;;;;;;;1.63;1.47;;;9.00;99.90;;;;;;5030924;28;20204;-76
2024/03/23 06:20:33;;;;;;;2.38;1.55;;;8.90;99.90;;;;;;5030584;28;20464;-76
2024/03/23 06:23:02;;;;;;;1.80;1.20;;;8.90;99.90;;;;;;5031823;28;20221;-76
2024/03/23 06:25:28;;;;;;;2.30;1.50;;;8.80;99.90;;;;;;5034782;28;20210;-76
2024/03/23 06:27:54;;;;;;;1.33;1.23;;;8.80;99.90;;;;;;5034726;28;20275;-77
2024/03/23 06:30:20;;;;;;;1.60;1.30;;;8.70;99.90;;;;;;5034285;28;20670;-76
2024/03/23 06:32:47;;;;;;;2.20;1.10;;;8.70;99.90;;;;;;5034194;28;20237;-76
2024/03/23 06:35:13;;;;;;;2.40;1.10;;;8.70;99.90;;;;;;5034507;28;20463;-76
2024/03/23 06:37:40;;;;;;;1.17;0.90;;;8.60;99.90;;;;;;5034624;28;20590;-76
2024/03/23 06:40:09;;;;;;;2.15;1.65;;;8.60;99.90;;;;;;5034223;28;20201;-76
2024/03/23 06:42:36;;;;;;;2.08;1.45;;;8.60;99.90;;;;;;5034149;28;20733;-76
2024/03/23 06:45:04;;;;;;;1.65;1.02;;;8.60;99.90;;;;;;5034321;28;20208;-76
2024/03/23 06:47:31;;;;;;;1.80;1.70;;;8.60;99.90;;;;;;5034496;28;20204;-76
2024/03/23 06:49:57;;;;;;;6.82;1.50;;;8.60;99.90;;;;;;5034058;28;20217;-76
2024/03/23 06:52:24;;;;;;;1.00;0.90;;;8.60;99.90;;;;;;5034003;28;20233;-76
2024/03/23 06:54:49;;;;;;;1.73;1.15;;;8.60;99.90;;;;;;5033831;28;20221;-76
2024/03/23 06:57:17;;;;;;;1.87;1.47;;;8.60;99.90;;;;;;5034063;28;20570;-76
2024/03/23 06:59:43;;;;;;;1.13;1.02;;;8.60;99.90;;;;;;5033951;28;20626;-76
2024/03/23 07:02:10;;;;;;;1.67;1.17;;;8.60;99.90;;;;;;5033642;28;20232;-76
2024/03/23 07:04:35;;;;;;;1.13;0.95;;;8.60;99.90;;;;;;5032736;28;20213;-76
2024/03/23 07:07:02;;;;;;;1.00;0.90;;;8.70;99.90;;;;;;5030403;28;20205;-76
2024/03/23 07:09:28;;;;;;;1.45;0.80;;;8.70;99.90;;;;;;5030958;28;20217;-76
2024/03/23 07:11:55;;;;;;;1.20;0.90;;;8.80;99.90;;;;;;5031154;28;20229;-75
2024/03/23 07:14:23;;;;;;;1.75;1.05;;;8.90;99.90;;;;;;5032471;28;20554;-76
2024/03/23 07:16:51;;;;;;;1.17;0.80;;;9.00;99.90;;;;;;5033741;28;20213;-76
2024/03/23 07:19:17;;;;;;;0.80;0.70;;;9.00;99.90;;;;;;5033372;28;20214;-76
2024/03/23 07:21:44;;;;;;;1.40;1.00;;;9.00;99.90;;;;;;5032857;28;20485;-75
2024/03/23 07:24:10;;;;;;;0.90;0.70;;;9.00;99.90;;;;;;5033465;28;20201;-75
2024/03/23 07:26:37;;;;;;;0.80;0.70;;;9.00;99.90;;;;;;5033538;28;20296;-75
2024/03/23 07:29:03;;;;;;;2.25;1.23;;;9.00;99.90;;;;;;5033426;28;20279;-75
2024/03/23 07:31:31;;;;;;;1.13;1.02;;;8.90;99.90;;;;;;5033075;28;20232;-75
2024/03/23 07:33:57;;;;;;;0.80;0.70;;;9.10;99.90;;;;;;5028890;28;20781;-75
2024/03/23 07:36:24;;;;;;;0.80;0.70;;;9.40;99.90;;;;;;5053597;28;20197;-74
2024/03/23 07:38:50;;;;;;;0.80;0.70;;;9.50;99.90;;;;;;5053334;28;20315;-74
2024/03/23 07:41:18;;;;;;;1.65;0.70;;;9.50;99.90;;;;;;5053215;28;20212;-73
2024/03/23 07:43:44;;;;;;;1.05;0.80;;;9.40;99.90;;;;;;5052928;28;20238;-74
2024/03/23 07:46:12;;;;;;;0.90;0.73;;;9.30;99.90;;;;;;5053306;28;20201;-73
2024/03/23 07:48:40;;;;;;;1.00;0.80;;;9.30;99.90;;;;;;5052958;28;20584;-73
2024/03/23 07:51:08;;;;;;;1.25;0.80;;;9.30;99.90;;;;;;5053142;28;20205;-73
2024/03/23 07:53:35;;;;;;;0.95;0.85;;;9.30;99.90;;;;;;5052317;28;20237;-73
2024/03/23 07:56:04;;;;;;;1.00;0.90;;;9.40;99.90;;;;;;5049858;28;20212;-73
2024/03/23 07:58:30;;;;;;;0.75;0.60;;;9.40;99.90;;;;;;5032775;28;20210;-76
2024/03/23 08:00:57;;;;;;;0.80;0.70;;;9.30;99.90;;;;;;5033062;28;20204;-76
2024/03/23 08:03:23;;;;;;;0.80;0.77;;;9.50;99.90;;;;;;5032533;28;20484;-76
2024/03/23 08:05:51;;;;;;;1.00;0.77;;;10.00;99.90;;;;;;5032827;28;20224;-76
2024/03/23 08:08:17;;;;;;;0.80;0.70;;;10.50;99.90;;;;;;5032714;28;20457;-75
2024/03/23 08:10:50;;;;;;;0.80;0.67;;;10.60;99.90;;;;;;5032878;28;20212;-75
2024/03/23 08:13:16;;;;;;;0.90;0.70;;;10.30;99.90;;;;;;5032297;28;20671;-75
2024/03/23 08:15:43;;;;;;;0.90;0.70;;;9.90;99.90;;;;;;5032749;28;20237;-75
2024/03/23 08:18:10;;;;;;;1.00;0.70;;;9.70;99.90;;;;;;5031500;28;20240;-75
2024/03/23 08:20:36;;;;;;;1.35;0.90;;;9.60;99.90;;;;;;5031048;28;20216;-76
2024/03/23 08:23:05;;;;;;;1.00;0.90;;;9.40;99.90;;;;;;5032155;28;20233;-75
2024/03/23 08:25:32;;;;;;;1.00;0.90;;;9.40;99.90;;;;;;5032177;28;20629;-75
2024/03/23 08:27:58;;;;;;;0.93;0.80;;;9.30;99.90;;;;;;5032379;28;20214;-75
2024/03/23 08:30:25;;;;;;;1.17;0.80;;;9.20;99.90;;;;;;5032043;28;20621;-73
2024/03/23 08:32:50;;;;;;;1.45;0.88;;;9.10;99.90;;;;;;5031994;28;20228;-73
2024/03/23 08:35:17;;;;;;;1.00;0.90;;;9.10;99.90;;;;;;5032092;28;20202;-73
2024/03/23 08:37:43;;;;;;;1.30;1.20;;;9.40;99.90;;;;;;5032240;28;20202;-73
2024/03/23 08:40:12;;;;;;;1.50;1.00;;;9.80;99.90;;;;;;5032031;28;20289;-73
2024/03/23 08:42:38;;;;;;;1.85;1.02;;;9.80;99.90;;;;;;5031511;28;20487;-76
2024/03/23 08:45:07;;;;;;;1.23;1.03;;;9.50;99.90;;;;;;5031848;28;20268;-75
2024/03/23 08:47:34;;;;;;;1.15;1.00;;;9.30;99.90;;;;;;5032011;28;20213;-73
2024/03/23 08:50:01;;;;;;;2.08;1.10;;;9.30;99.90;;;;;;5031960;28;20226;-73
2024/03/23 08:52:28;;;;;;;1.67;1.20;;;9.50;99.90;;;;;;5024314;28;20221;-74
2024/03/23 08:54:55;;;;;;;1.20;0.98;;;9.90;99.90;;;;;;5021699;28;20216;-76
2024/03/23 08:57:23;;;;;;;1.23;1.13;;;10.00;99.90;;;;;;5026721;28;20211;-76
2024/03/23 08:59:49;;;;;;;1.10;1.00;;;10.20;99.90;;;;;;5031320;28;20210;-76
2024/03/23 09:02:15;;;;;;;4.70;1.63;;;10.20;99.90;;;;;;5030883;28;20221;-75
2024/03/23 09:04:42;;;;;;;1.40;1.30;;;10.20;99.90;;;;;;5031013;28;20209;-76
2024/03/23 09:07:08;;;;;;;1.35;1.10;;;10.00;99.90;;;;;;5031333;28;20605;-76
2024/03/23 09:09:34;;;;;;;1.40;1.20;;;9.80;99.90;;;;;;5031404;28;20205;-75
2024/03/23 09:12:00;;;;;;;1.15;1.00;;;9.50;99.90;;;;;;5030786;28;20837;-74
2024/03/23 09:14:29;;;;;;;2.03;1.30;;;9.30;99.90;;;;;;5031131;28;20232;-76
2024/03/23 09:16:55;;;;;;;1.27;1.17;;;9.20;99.90;;;;;;5031007;28;20288;-76
2024/03/23 09:19:26;;;;;;;1.30;1.20;;;9.10;99.90;;;;;;5031450;28;20640;-76
2024/03/23 09:21:52;;;;;;;2.85;1.42;;;9.10;99.90;;;;;;5026381;28;20479;-76
2024/03/23 09:24:19;;;;;;;4.60;1.93;;;9.00;99.90;;;;;;5038939;28;20586;-76
2024/03/23 09:26:45;;;;;;;2.40;1.95;;;9.10;99.90;;;;;;5045869;28;20555;-76
2024/03/23 09:29:13;;;;;;;2.53;2.25;;;9.10;99.90;;;;;;5030361;28;20205;-76
2024/03/23 09:31:41;;;;;;;2.28;1.98;;;9.30;99.90;;;;;;5029837;28;20300;-75
2024/03/23 09:34:08;;;;;;;2.20;1.65;;;10.10;99.90;;;;;;5031071;28;20273;-75
2024/03/23 09:36:34;;;;;;;1.52;1.40;;;11.90;99.90;;;;;;5028099;28;20201;-75
2024/03/23 09:39:05;;;;;;;3.80;1.77;;;12.90;99.90;;;;;;5027458;28;20198;-75
2024/03/23 09:41:31;;;;;;;3.10;1.88;;;13.50;99.90;;;;;;5029929;28;20245;-75
2024/03/23 09:44:02;;;;;;;2.40;1.90;;;13.30;99.90;;;;;;5026460;28;20229;-75
2024/03/23 09:46:28;;;;;;;4.35;1.70;;;12.30;99.90;;;;;;5032649;28;20459;-76
2024/03/23 09:48:57;;;;;;;2.50;2.30;;;11.40;99.90;;;;;;5049002;28;20205;-75
2024/03/23 09:51:23;;;;;;;2.58;1.63;;;10.90;99.90;;;;;;5030442;28;20297;-74
2024/03/23 09:53:53;;;;;;;2.70;2.40;;;10.60;99.90;;;;;;5029865;28;20317;-74
2024/03/23 09:56:19;;;;;;;6.53;2.30;;;10.30;99.90;;;;;;5026951;28;20547;-74
2024/03/23 09:58:46;;;;;;;1.83;1.73;;;10.10;99.90;;;;;;5032576;28;20217;-74
2024/03/23 10:01:12;;;;;;;6.47;2.40;;;9.80;99.90;;;;;;5031149;28;20263;-76
2024/03/23 10:03:45;;;;;;;2.88;2.03;;;9.80;99.90;;;;;;5033608;28;20225;-75
2024/03/23 10:06:13;;;;;;;2.45;2.25;;;10.10;99.90;;;;;;5033188;28;20213;-75
2024/03/23 10:08:40;;;;;;;1.92;1.67;;;11.50;99.90;;;;;;5033586;28;20214;-75
2024/03/23 10:11:16;;;;;;;1.80;1.58;;;12.50;99.90;;;;;;5031246;28;20283;-75
2024/03/23 10:13:45;;;;;;;2.22;1.77;;;12.90;99.90;;;;;;5033181;28;20866;-75
2024/03/23 10:16:12;;;;;;;4.13;2.20;;;13.80;99.90;;;;;;5032010;28;20210;-75
2024/03/23 10:18:39;;;;;;;7.03;2.30;;;15.00;98.80;;;;;;5033927;28;21067;-75
2024/03/23 10:21:10;;;;;;;1.90;1.70;;;15.80;97.10;;;;;;5031584;28;20472;-75
2024/03/23 10:23:40;;;;;;;4.30;1.70;;;15.90;95.60;;;;;;5037853;28;20483;-75
2024/03/23 10:26:14;;;;;;;2.67;1.87;;;15.60;95.10;;;;;;5033933;28;20464;-76
2024/03/23 10:29:00;;;;;;;3.30;2.20;;;16.10;95.30;;;;;;5053200;28;20483;-75
2024/03/23 10:31:41;;;;;;;4.43;1.87;;;16.30;94.20;;;;;;5028017;28;20463;-75
2024/03/23 10:34:12;;;;;;;2.67;2.17;;;16.90;94.80;;;;;;5048645;28;20491;-76
2024/03/23 10:36:44;;;;;;;3.20;2.03;;;17.50;92.30;;;;;;5032976;28;20453;-76
2024/03/23 10:39:21;;;;;;;8.40;2.67;;;17.50;91.20;;;;;;5028989;28;20467;-76
2024/03/23 10:41:49;;;;;;;4.20;2.10;;;16.40;92.10;;;;;;5026803;28;20485;-76
2024/03/23 10:44:19;;;;;;;5.03;2.03;;;15.00;93.30;;;;;;5052630;28;20463;-76
2024/03/23 10:46:45;;;;;;;6.67;1.97;;;14.10;94.40;;;;;;5032286;28;20460;-76
2024/03/23 10:49:12;;;;;;;5.10;2.30;;;13.30;95.70;;;;;;5033431;28;20472;-76
2024/03/23 10:51:38;;;;;;;2.67;1.50;;;12.60;96.00;;;;;;5029213;28;20701;-76
2024/03/23 10:54:07;;;;;;;2.73;2.20;;;12.00;96.80;;;;;;5052989;28;20581;-76
2024/03/23 10:56:36;;;;;;;2.37;2.13;;;11.50;99.50;;;;;;5033581;28;20467;-76
2024/03/23 10:59:07;;;;;;;3.20;1.77;;;10.70;99.90;;;;;;5032975;28;20476;-76
2024/03/23 11:01:33;;;;;;;4.38;1.90;;;9.90;99.90;;;;;;5031776;28;20240;-76
2024/03/23 11:03:59;;;;;;;1.93;1.50;;;9.30;99.90;;;;;;5033889;28;20697;-77
2024/03/23 11:06:35;;;;;;;3.50;1.58;;;8.80;99.90;;;;;;5032650;28;20471;-76
2024/03/23 11:09:02;;;;;;;1.15;1.05;;;8.20;99.90;;;;;;5036046;28;20262;-76
2024/03/23 11:11:31;;;;;;;3.72;1.40;;;7.80;99.90;;;;;;5033349;28;20229;-76
2024/03/23 11:14:00;;;;;;;2.05;1.60;;;7.80;99.90;;;;;;5032543;28;20291;-76
2024/03/23 11:16:28;;;;;;;1.55;1.35;;;8.00;99.90;;;;;;5024723;28;20614;-76
2024/03/23 11:18:59;;;;;;;1.88;1.65;;;8.50;99.90;;;;;;5032277;28;20213;-76
2024/03/23 11:21:53;;;;;;;1.30;1.08;;;9.30;99.90;;;;;;5030687;28;20588;-76
2024/03/23 11:24:21;;;;;;;2.28;1.65;;;9.90;99.90;;;;;;5033041;28;20198;-76
2024/03/23 11:26:47;;;;;;;1.42;1.15;;;10.90;99.90;;;;;;5032113;28;20581;-76
2024/03/23 11:29:16;;;;;;;1.20;1.10;;;12.30;99.90;;;;;;5032698;28;20289;-76
2024/03/23 11:31:47;;;;;;;2.00;1.90;;;13.80;99.90;;;;;;5023805;28;20656;-76
2024/03/23 11:34:14;;;;;;;1.77;1.17;;;14.20;99.90;;;;;;5038979;28;20585;-76
2024/03/23 11:36:39;;;;;;;1.73;1.17;;;14.20;99.90;;;;;;5026580;28;20464;-76
2024/03/23 11:39:15;;;;;;;1.73;1.07;;;14.50;99.90;;;;;;5032603;28;20461;-76
2024/03/23 11:41:48;;;;;;;2.47;1.43;;;14.80;99.90;;;;;;5024764;28;20221;-76
2024/03/23 11:44:20;;;;;;;2.00;1.40;;;15.10;99.90;;;;;;5032380;28;20464;-76
2024/03/23 11:46:46;;;;;;;1.63;1.47;;;15.30;99.90;;;;;;5025787;28;20848;-76
2024/03/23 11:49:23;;;;;;;4.20;1.37;;;15.00;99.90;;;;;;5032710;28;20468;-75
2024/03/23 11:51:49;;;;;;;1.80;1.40;;;14.80;99.90;;;;;;5025659;28;21021;-75
2024/03/23 11:54:16;;;;;;;1.77;1.43;;;14.80;99.90;;;;;;5032981;28;20554;-75
2024/03/23 11:56:55;;;;;;;1.23;0.90;;;14.40;99.90;;;;;;5026776;28;20457;-75
2024/03/23 11:59:33;;;;;;;1.60;1.23;;;13.80;99.90;;;;;;5032662;28;20474;-75
2024/03/23 12:01:59;;;;;;;1.50;1.30;;;12.70;99.70;;;;;;5032257;28;20498;-75
2024/03/23 12:04:27;;;;;;;1.83;1.47;;;12.10;99.90;;;;;;5034254;28;20841;-74
2024/03/23 12:07:14;;;;;;;1.27;1.17;;;12.00;99.90;;;;;;5033465;28;20973;-75
2024/03/23 12:09:42;;;;;;;2.30;1.37;;;12.00;99.90;;;;;;5032522;28;20851;-75
2024/03/23 12:12:10;;;;;;;2.30;1.30;;;11.90;99.90;;;;;;5030461;28;20491;-75
2024/03/23 12:14:39;;;;;;;1.40;1.30;;;11.90;99.90;;;;;;5034256;28;20488;-74
2024/03/23 12:17:10;;;;;;;1.83;1.27;;;11.80;99.90;;;;;;5031509;28;20461;-75
2024/03/23 12:19:36;;;;;;;2.23;1.30;;;11.50;99.50;;;;;;5039982;28;20456;-75
2024/03/23 12:22:03;;;;;;;1.38;1.25;;;11.20;99.90;;;;;;5046509;28;20568;-75
2024/03/23 12:24:30;;;;;;;3.28;1.42;;;11.00;99.20;;;;;;5037187;28;20266;-77
2024/03/23 12:27:00;;;;;;;3.28;1.73;;;10.70;99.10;;;;;;5027072;28;20214;-75
2024/03/23 12:29:28;;;;;;;5.45;1.70;;;10.50;99.90;;;;;;5052192;28;20207;-76
2024/03/23 12:31:55;;;;;;;2.88;1.52;;;10.50;99.70;;;;;;5036581;28;20236;-77
2024/03/23 12:34:22;;;;;;;3.58;1.35;;;10.40;98.50;;;;;;5028358;28;20214;-76
2024/03/23 12:36:48;;;;;;;1.40;1.30;;;10.30;99.20;;;;;;5022882;28;20213;-76
2024/03/23 12:39:15;;;;;;;5.67;1.57;;;10.20;99.20;;;;;;5022834;28;20198;-76
2024/03/23 12:41:40;;;;;;;5.40;1.50;;;10.00;99.90;;;;;;5030999;28;20206;-77
2024/03/23 12:44:08;;;;;;;1.57;1.33;;;9.80;99.60;;;;;;5025623;28;20195;-77
2024/03/23 12:46:34;;;;;;;2.92;1.50;;;9.60;99.90;;;;;;5025093;28;20299;-77
2024/03/23 12:49:02;;;;;;;3.83;1.63;;;9.60;99.90;;;;;;5023048;28;20237;-77
2024/03/23 12:51:28;;;;;;;6.45;2.05;;;9.40;99.90;;;;;;5024356;28;20211;-77